sensor_id;sensor_type;location;lat;lon;timestamp;P1;durP1;ratioP1;P2;durP2;ratioP2
50291;SDS011;36190;54.980;73.388;2022-07-18T00:02:00;17.80;;;10.95;;
50291;SDS011;36190;54.980;73.388;2022-07-18T00:04:28;19.08;;;10.27;;
50291;SDS011;36190;54.980;73.388;2022-07-18T00:06:56;16.17;;;10.60;;
50291;SDS011;36190;54.980;73.388;2022-07-18T00:09:23;15.80;;;10.77;;
50291;SDS011;36190;54.980;73.388;2022-07-18T00:11:52;17.33;;;11.05;;
50291;SDS011;36190;54.980;73.388;2022-07-18T00:14:20;18.30;;;10.88;;
50291;SDS011;36190;54.980;73.388;2022-07-18T00:16:48;16.27;;;11.25;;
50291;SDS011;36190;54.980;73.388;2022-07-18T00:19:17;19.25;;;11.38;;
50291;SDS011;36190;54.980;73.388;2022-07-18T00:21:45;18.05;;;11.43;;
50291;SDS011;36190;54.980;73.388;2022-07-18T00:24:12;19.20;;;12.10;;
50291;SDS011;36190;54.980;73.388;2022-07-18T00:26:40;21.27;;;12.45;;
50291;SDS011;36190;54.980;73.388;2022-07-18T00:29:09;19.02;;;11.52;;
50291;SDS011;36190;54.980;73.388;2022-07-18T00:31:36;20.05;;;11.98;;
50291;SDS011;36190;54.980;73.388;2022-07-18T00:34:04;21.33;;;12.35;;
50291;SDS011;36190;54.980;73.388;2022-07-18T00:36:31;20.85;;;12.10;;
50291;SDS011;36190;54.980;73.388;2022-07-18T00:38:59;20.83;;;11.90;;
50291;SDS011;36190;54.980;73.388;2022-07-18T00:41:26;25.27;;;12.57;;
50291;SDS011;36190;54.980;73.388;2022-07-18T00:43:53;20.55;;;12.85;;
50291;SDS011;36190;54.980;73.388;2022-07-18T00:46:25;18.25;;;12.25;;
50291;SDS011;36190;54.980;73.388;2022-07-18T00:48:53;21.65;;;12.52;;
50291;SDS011;36190;54.980;73.388;2022-07-18T00:51:21;23.35;;;13.07;;
50291;SDS011;36190;54.980;73.388;2022-07-18T00:53:49;21.77;;;12.20;;
50291;SDS011;36190;54.980;73.388;2022-07-18T00:56:17;20.90;;;13.05;;
50291;SDS011;36190;54.980;73.388;2022-07-18T00:58:46;21.65;;;12.00;;
50291;SDS011;36190;54.980;73.388;2022-07-18T01:01:13;19.42;;;12.25;;
50291;SDS011;36190;54.980;73.388;2022-07-18T01:04:00;17.30;;;11.77;;
50291;SDS011;36190;54.980;73.388;2022-07-18T01:06:27;20.13;;;12.25;;
50291;SDS011;36190;54.980;73.388;2022-07-18T01:08:54;18.33;;;12.35;;
50291;SDS011;36190;54.980;73.388;2022-07-18T01:11:24;17.52;;;11.45;;
50291;SDS011;36190;54.980;73.388;2022-07-18T01:13:51;16.60;;;11.90;;
50291;SDS011;36190;54.980;73.388;2022-07-18T01:16:21;18.90;;;11.23;;
50291;SDS011;36190;54.980;73.388;2022-07-18T01:18:49;17.02;;;11.05;;
50291;SDS011;36190;54.980;73.388;2022-07-18T01:21:18;17.17;;;11.88;;
50291;SDS011;36190;54.980;73.388;2022-07-18T01:23:46;20.38;;;11.68;;
50291;SDS011;36190;54.980;73.388;2022-07-18T01:26:14;22.88;;;12.77;;
50291;SDS011;36190;54.980;73.388;2022-07-18T01:28:42;26.73;;;12.68;;
50291;SDS011;36190;54.980;73.388;2022-07-18T01:31:11;22.52;;;12.57;;
50291;SDS011;36190;54.980;73.388;2022-07-18T01:33:38;22.83;;;13.00;;
50291;SDS011;36190;54.980;73.388;2022-07-18T01:36:06;27.73;;;13.18;;
50291;SDS011;36190;54.980;73.388;2022-07-18T01:38:36;26.75;;;13.48;;
50291;SDS011;36190;54.980;73.388;2022-07-18T01:41:04;25.77;;;13.02;;
50291;SDS011;36190;54.980;73.388;2022-07-18T01:43:32;24.45;;;13.40;;
50291;SDS011;36190;54.980;73.388;2022-07-18T01:46:03;20.08;;;12.20;;
50291;SDS011;36190;54.980;73.388;2022-07-18T01:48:30;20.30;;;12.38;;
50291;SDS011;36190;54.980;73.388;2022-07-18T01:50:58;20.20;;;12.35;;
50291;SDS011;36190;54.980;73.388;2022-07-18T01:53:26;23.42;;;13.65;;
50291;SDS011;36190;54.980;73.388;2022-07-18T01:55:54;28.58;;;12.98;;
50291;SDS011;36190;54.980;73.388;2022-07-18T01:58:22;25.42;;;13.48;;
50291;SDS011;36190;54.980;73.388;2022-07-18T02:00:49;25.55;;;12.75;;
50291;SDS011;36190;54.980;73.388;2022-07-18T02:03:16;21.45;;;11.85;;
50291;SDS011;36190;54.980;73.388;2022-07-18T02:05:44;22.30;;;11.10;;
50291;SDS011;36190;54.980;73.388;2022-07-18T02:08:11;20.13;;;10.10;;
50291;SDS011;36190;54.980;73.388;2022-07-18T02:10:39;21.25;;;10.52;;
50291;SDS011;36190;54.980;73.388;2022-07-18T02:13:08;20.80;;;10.73;;
50291;SDS011;36190;54.980;73.388;2022-07-18T02:15:35;16.02;;;9.30;;
50291;SDS011;36190;54.980;73.388;2022-07-18T02:18:03;22.58;;;10.73;;
50291;SDS011;36190;54.980;73.388;2022-07-18T02:20:30;21.58;;;10.77;;
50291;SDS011;36190;54.980;73.388;2022-07-18T02:22:58;22.70;;;12.15;;
50291;SDS011;36190;54.980;73.388;2022-07-18T02:25:25;20.05;;;12.10;;
50291;SDS011;36190;54.980;73.388;2022-07-18T02:27:52;20.80;;;11.82;;
50291;SDS011;36190;54.980;73.388;2022-07-18T02:30:21;20.75;;;12.38;;
50291;SDS011;36190;54.980;73.388;2022-07-18T02:32:49;23.95;;;12.80;;
50291;SDS011;36190;54.980;73.388;2022-07-18T02:35:16;24.00;;;12.98;;
50291;SDS011;36190;54.980;73.388;2022-07-18T02:37:43;19.02;;;8.98;;
50291;SDS011;36190;54.980;73.388;2022-07-18T02:40:11;15.20;;;8.48;;
50291;SDS011;36190;54.980;73.388;2022-07-18T02:42:38;18.13;;;8.95;;
50291;SDS011;36190;54.980;73.388;2022-07-18T02:45:07;13.52;;;8.20;;
50291;SDS011;36190;54.980;73.388;2022-07-18T02:47:36;15.40;;;7.72;;
50291;SDS011;36190;54.980;73.388;2022-07-18T02:50:04;12.70;;;7.38;;
50291;SDS011;36190;54.980;73.388;2022-07-18T02:52:32;17.75;;;8.32;;
50291;SDS011;36190;54.980;73.388;2022-07-18T02:54:59;17.58;;;8.70;;
50291;SDS011;36190;54.980;73.388;2022-07-18T02:57:27;21.77;;;9.85;;
50291;SDS011;36190;54.980;73.388;2022-07-18T02:59:54;22.83;;;9.60;;
50291;SDS011;36190;54.980;73.388;2022-07-18T03:02:22;18.85;;;9.23;;
50291;SDS011;36190;54.980;73.388;2022-07-18T03:04:51;22.20;;;9.18;;
50291;SDS011;36190;54.980;73.388;2022-07-18T03:07:18;21.27;;;9.90;;
50291;SDS011;36190;54.980;73.388;2022-07-18T03:09:46;19.15;;;8.50;;
50291;SDS011;36190;54.980;73.388;2022-07-18T03:12:13;19.08;;;8.27;;
50291;SDS011;36190;54.980;73.388;2022-07-18T03:14:40;15.88;;;8.27;;
50291;SDS011;36190;54.980;73.388;2022-07-18T03:17:08;18.17;;;8.52;;
50291;SDS011;36190;54.980;73.388;2022-07-18T03:19:35;20.77;;;8.18;;
50291;SDS011;36190;54.980;73.388;2022-07-18T03:22:04;18.88;;;8.57;;
50291;SDS011;36190;54.980;73.388;2022-07-18T03:24:32;15.68;;;8.00;;
50291;SDS011;36190;54.980;73.388;2022-07-18T03:26:59;15.20;;;7.93;;
50291;SDS011;36190;54.980;73.388;2022-07-18T03:29:27;17.75;;;7.53;;
50291;SDS011;36190;54.980;73.388;2022-07-18T03:31:55;18.48;;;7.80;;
50291;SDS011;36190;54.980;73.388;2022-07-18T03:34:22;13.18;;;7.50;;
50291;SDS011;36190;54.980;73.388;2022-07-18T03:36:49;15.88;;;6.80;;
50291;SDS011;36190;54.980;73.388;2022-07-18T03:39:18;12.57;;;5.38;;
50291;SDS011;36190;54.980;73.388;2022-07-18T03:41:45;11.45;;;5.60;;
50291;SDS011;36190;54.980;73.388;2022-07-18T03:44:13;10.02;;;5.00;;
50291;SDS011;36190;54.980;73.388;2022-07-18T03:46:40;9.45;;;5.32;;
50291;SDS011;36190;54.980;73.388;2022-07-18T03:49:08;9.65;;;5.03;;
50291;SDS011;36190;54.980;73.388;2022-07-18T03:51:35;9.18;;;4.72;;
50291;SDS011;36190;54.980;73.388;2022-07-18T03:54:03;9.85;;;4.90;;
50291;SDS011;36190;54.980;73.388;2022-07-18T03:56:32;9.15;;;4.93;;
50291;SDS011;36190;54.980;73.388;2022-07-18T03:58:59;9.27;;;4.88;;
50291;SDS011;36190;54.980;73.388;2022-07-18T04:01:26;10.38;;;5.22;;
50291;SDS011;36190;54.980;73.388;2022-07-18T04:03:54;8.88;;;4.68;;
50291;SDS011;36190;54.980;73.388;2022-07-18T04:06:21;8.15;;;4.22;;
50291;SDS011;36190;54.980;73.388;2022-07-18T04:08:48;10.98;;;4.82;;
50291;SDS011;36190;54.980;73.388;2022-07-18T04:11:16;9.07;;;4.50;;
50291;SDS011;36190;54.980;73.388;2022-07-18T04:13:46;10.55;;;5.10;;
50291;SDS011;36190;54.980;73.388;2022-07-18T04:16:14;8.02;;;4.30;;
50291;SDS011;36190;54.980;73.388;2022-07-18T04:18:41;9.30;;;4.90;;
50291;SDS011;36190;54.980;73.388;2022-07-18T04:21:08;10.20;;;4.38;;
50291;SDS011;36190;54.980;73.388;2022-07-18T04:23:36;8.65;;;4.03;;
50291;SDS011;36190;54.980;73.388;2022-07-18T04:26:03;10.10;;;4.45;;
50291;SDS011;36190;54.980;73.388;2022-07-18T04:28:31;7.93;;;4.97;;
50291;SDS011;36190;54.980;73.388;2022-07-18T04:30:59;8.07;;;4.47;;
50291;SDS011;36190;54.980;73.388;2022-07-18T04:33:27;11.98;;;4.35;;
50291;SDS011;36190;54.980;73.388;2022-07-18T04:35:55;8.02;;;4.40;;
50291;SDS011;36190;54.980;73.388;2022-07-18T04:38:22;11.65;;;4.55;;
50291;SDS011;36190;54.980;73.388;2022-07-18T04:40:49;7.82;;;4.30;;
50291;SDS011;36190;54.980;73.388;2022-07-18T04:43:17;7.50;;;4.07;;
50291;SDS011;36190;54.980;73.388;2022-07-18T04:45:44;8.73;;;4.90;;
50291;SDS011;36190;54.980;73.388;2022-07-18T04:48:13;8.93;;;4.50;;
50291;SDS011;36190;54.980;73.388;2022-07-18T04:50:40;8.48;;;4.70;;
50291;SDS011;36190;54.980;73.388;2022-07-18T04:53:08;9.63;;;4.13;;
50291;SDS011;36190;54.980;73.388;2022-07-18T04:55:35;7.43;;;4.13;;
50291;SDS011;36190;54.980;73.388;2022-07-18T04:58:03;8.38;;;4.30;;
50291;SDS011;36190;54.980;73.388;2022-07-18T05:00:30;7.25;;;4.40;;
50291;SDS011;36190;54.980;73.388;2022-07-18T05:02:58;9.45;;;4.72;;
50291;SDS011;36190;54.980;73.388;2022-07-18T05:05:27;11.35;;;5.03;;
50291;SDS011;36190;54.980;73.388;2022-07-18T05:07:55;8.57;;;4.25;;
50291;SDS011;36190;54.980;73.388;2022-07-18T05:10:22;7.82;;;4.30;;
50291;SDS011;36190;54.980;73.388;2022-07-18T05:12:50;8.65;;;4.45;;
50291;SDS011;36190;54.980;73.388;2022-07-18T05:15:20;10.02;;;4.43;;
50291;SDS011;36190;54.980;73.388;2022-07-18T05:17:48;8.10;;;4.30;;
50291;SDS011;36190;54.980;73.388;2022-07-18T05:20:16;11.07;;;4.22;;
50291;SDS011;36190;54.980;73.388;2022-07-18T05:22:46;6.60;;;3.88;;
50291;SDS011;36190;54.980;73.388;2022-07-18T05:25:14;8.70;;;4.18;;
50291;SDS011;36190;54.980;73.388;2022-07-18T05:27:42;8.85;;;4.43;;
50291;SDS011;36190;54.980;73.388;2022-07-18T05:30:10;5.95;;;3.65;;
50291;SDS011;36190;54.980;73.388;2022-07-18T05:32:40;7.20;;;4.20;;
50291;SDS011;36190;54.980;73.388;2022-07-18T05:35:09;7.30;;;4.00;;
50291;SDS011;36190;54.980;73.388;2022-07-18T05:37:37;8.35;;;4.20;;
50291;SDS011;36190;54.980;73.388;2022-07-18T05:40:08;9.43;;;3.80;;
50291;SDS011;36190;54.980;73.388;2022-07-18T05:42:36;8.18;;;4.35;;
50291;SDS011;36190;54.980;73.388;2022-07-18T05:45:05;6.78;;;3.90;;
50291;SDS011;36190;54.980;73.388;2022-07-18T05:47:34;8.10;;;4.18;;
50291;SDS011;36190;54.980;73.388;2022-07-18T05:50:02;7.63;;;4.03;;
50291;SDS011;36190;54.980;73.388;2022-07-18T05:52:30;7.20;;;3.95;;
50291;SDS011;36190;54.980;73.388;2022-07-18T05:54:57;9.02;;;4.15;;
50291;SDS011;36190;54.980;73.388;2022-07-18T05:57:27;11.32;;;4.18;;
50291;SDS011;36190;54.980;73.388;2022-07-18T05:59:54;6.43;;;4.10;;
50291;SDS011;36190;54.980;73.388;2022-07-18T06:02:22;7.60;;;3.90;;
50291;SDS011;36190;54.980;73.388;2022-07-18T06:04:49;7.30;;;3.88;;
50291;SDS011;36190;54.980;73.388;2022-07-18T06:07:17;7.35;;;3.85;;
50291;SDS011;36190;54.980;73.388;2022-07-18T06:09:44;10.15;;;4.18;;
50291;SDS011;36190;54.980;73.388;2022-07-18T06:12:11;8.82;;;4.20;;
50291;SDS011;36190;54.980;73.388;2022-07-18T06:14:41;8.90;;;3.90;;
50291;SDS011;36190;54.980;73.388;2022-07-18T06:17:08;8.43;;;3.75;;
50291;SDS011;36190;54.980;73.388;2022-07-18T06:19:35;10.55;;;3.78;;
50291;SDS011;36190;54.980;73.388;2022-07-18T06:22:04;8.07;;;4.00;;
50291;SDS011;36190;54.980;73.388;2022-07-18T06:24:32;7.47;;;4.30;;
50291;SDS011;36190;54.980;73.388;2022-07-18T06:26:59;8.50;;;3.63;;
50291;SDS011;36190;54.980;73.388;2022-07-18T06:29:27;7.78;;;3.83;;
50291;SDS011;36190;54.980;73.388;2022-07-18T06:31:56;7.35;;;3.58;;
50291;SDS011;36190;54.980;73.388;2022-07-18T06:34:23;7.40;;;3.28;;
50291;SDS011;36190;54.980;73.388;2022-07-18T06:36:51;6.55;;;3.70;;
50291;SDS011;36190;54.980;73.388;2022-07-18T06:39:19;8.80;;;3.90;;
50291;SDS011;36190;54.980;73.388;2022-07-18T06:41:46;8.93;;;3.35;;
50291;SDS011;36190;54.980;73.388;2022-07-18T06:44:14;5.93;;;3.45;;
50291;SDS011;36190;54.980;73.388;2022-07-18T06:46:41;6.75;;;3.90;;
50291;SDS011;36190;54.980;73.388;2022-07-18T06:49:10;8.20;;;3.28;;
50291;SDS011;36190;54.980;73.388;2022-07-18T06:51:37;9.32;;;3.70;;
50291;SDS011;36190;54.980;73.388;2022-07-18T06:54:05;6.13;;;3.70;;
50291;SDS011;36190;54.980;73.388;2022-07-18T06:56:32;7.68;;;3.40;;
50291;SDS011;36190;54.980;73.388;2022-07-18T06:58:59;6.22;;;3.25;;
50291;SDS011;36190;54.980;73.388;2022-07-18T07:01:27;7.55;;;3.47;;
50291;SDS011;36190;54.980;73.388;2022-07-18T07:03:54;9.55;;;3.80;;
50291;SDS011;36190;54.980;73.388;2022-07-18T07:06:23;9.80;;;3.60;;
50291;SDS011;36190;54.980;73.388;2022-07-18T07:08:50;11.93;;;3.67;;
50291;SDS011;36190;54.980;73.388;2022-07-18T07:11:18;6.45;;;3.40;;
50291;SDS011;36190;54.980;73.388;2022-07-18T07:13:47;7.30;;;3.67;;
50291;SDS011;36190;54.980;73.388;2022-07-18T07:16:15;8.18;;;3.58;;
50291;SDS011;36190;54.980;73.388;2022-07-18T07:21:30;6.20;;;3.08;;
50291;SDS011;36190;54.980;73.388;2022-07-18T07:23:57;6.72;;;3.40;;
50291;SDS011;36190;54.980;73.388;2022-07-18T07:26:25;5.68;;;3.30;;
50291;SDS011;36190;54.980;73.388;2022-07-18T07:28:52;10.43;;;3.72;;
50291;SDS011;36190;54.980;73.388;2022-07-18T07:31:20;8.32;;;3.92;;
50291;SDS011;36190;54.980;73.388;2022-07-18T07:33:47;8.75;;;3.70;;
50291;SDS011;36190;54.980;73.388;2022-07-18T07:36:14;10.13;;;4.28;;
50291;SDS011;36190;54.980;73.388;2022-07-18T07:38:43;6.65;;;3.30;;
50291;SDS011;36190;54.980;73.388;2022-07-18T07:41:11;8.38;;;4.20;;
50291;SDS011;36190;54.980;73.388;2022-07-18T07:43:39;6.72;;;3.72;;
50291;SDS011;36190;54.980;73.388;2022-07-18T07:46:06;8.15;;;4.25;;
50291;SDS011;36190;54.980;73.388;2022-07-18T07:48:36;8.57;;;4.38;;
50291;SDS011;36190;54.980;73.388;2022-07-18T07:51:03;12.38;;;4.00;;
50291;SDS011;36190;54.980;73.388;2022-07-18T07:53:30;9.95;;;4.30;;
50291;SDS011;36190;54.980;73.388;2022-07-18T07:55:59;7.95;;;4.15;;
50291;SDS011;36190;54.980;73.388;2022-07-18T07:58:27;9.25;;;4.35;;
50291;SDS011;36190;54.980;73.388;2022-07-18T08:00:54;15.77;;;4.60;;
50291;SDS011;36190;54.980;73.388;2022-07-18T08:03:22;8.57;;;4.00;;
50291;SDS011;36190;54.980;73.388;2022-07-18T08:05:49;7.18;;;4.00;;
50291;SDS011;36190;54.980;73.388;2022-07-18T08:08:17;7.18;;;3.42;;
50291;SDS011;36190;54.980;73.388;2022-07-18T08:10:45;7.65;;;3.95;;
50291;SDS011;36190;54.980;73.388;2022-07-18T08:13:14;9.70;;;4.30;;
50291;SDS011;36190;54.980;73.388;2022-07-18T08:15:42;6.40;;;3.63;;
50291;SDS011;36190;54.980;73.388;2022-07-18T08:18:09;7.50;;;3.90;;
50291;SDS011;36190;54.980;73.388;2022-07-18T08:20:37;7.85;;;3.80;;
50291;SDS011;36190;54.980;73.388;2022-07-18T08:23:05;17.45;;;3.60;;
50291;SDS011;36190;54.980;73.388;2022-07-18T08:25:34;9.20;;;3.80;;
50291;SDS011;36190;54.980;73.388;2022-07-18T08:28:03;8.77;;;4.15;;
50291;SDS011;36190;54.980;73.388;2022-07-18T08:30:33;7.25;;;3.63;;
50291;SDS011;36190;54.980;73.388;2022-07-18T08:33:01;6.90;;;3.67;;
50291;SDS011;36190;54.980;73.388;2022-07-18T08:35:28;6.60;;;3.20;;
50291;SDS011;36190;54.980;73.388;2022-07-18T08:37:57;9.55;;;3.65;;
50291;SDS011;36190;54.980;73.388;2022-07-18T08:40:24;7.15;;;3.50;;
50291;SDS011;36190;54.980;73.388;2022-07-18T08:42:52;8.18;;;3.67;;
50291;SDS011;36190;54.980;73.388;2022-07-18T08:45:21;8.95;;;3.92;;
50291;SDS011;36190;54.980;73.388;2022-07-18T08:47:51;6.55;;;3.70;;
50291;SDS011;36190;54.980;73.388;2022-07-18T08:50:19;7.10;;;3.75;;
50291;SDS011;36190;54.980;73.388;2022-07-18T08:52:48;7.35;;;3.70;;
50291;SDS011;36190;54.980;73.388;2022-07-18T08:55:15;11.27;;;4.18;;
50291;SDS011;36190;54.980;73.388;2022-07-18T08:57:43;9.05;;;3.88;;
50291;SDS011;36190;54.980;73.388;2022-07-18T09:00:10;7.18;;;3.92;;
50291;SDS011;36190;54.980;73.388;2022-07-18T09:02:38;9.25;;;4.05;;
50291;SDS011;36190;54.980;73.388;2022-07-18T09:05:16;7.28;;;3.70;;
50291;SDS011;36190;54.980;73.388;2022-07-18T09:07:45;7.13;;;3.63;;
50291;SDS011;36190;54.980;73.388;2022-07-18T09:10:12;8.40;;;3.70;;
50291;SDS011;36190;54.980;73.388;2022-07-18T09:12:40;6.72;;;3.58;;
50291;SDS011;36190;54.980;73.388;2022-07-18T09:15:22;8.80;;;3.90;;
50291;SDS011;36190;54.980;73.388;2022-07-18T09:17:49;10.50;;;4.60;;
50291;SDS011;36190;54.980;73.388;2022-07-18T09:20:18;5.72;;;3.45;;
50291;SDS011;36190;54.980;73.388;2022-07-18T09:22:48;7.82;;;3.65;;
50291;SDS011;36190;54.980;73.388;2022-07-18T09:25:16;8.52;;;3.58;;
50291;SDS011;36190;54.980;73.388;2022-07-18T09:27:47;5.75;;;3.22;;
50291;SDS011;36190;54.980;73.388;2022-07-18T09:30:16;6.63;;;3.38;;
50291;SDS011;36190;54.980;73.388;2022-07-18T09:32:46;12.35;;;4.20;;
50291;SDS011;36190;54.980;73.388;2022-07-18T09:35:18;8.07;;;4.00;;
50291;SDS011;36190;54.980;73.388;2022-07-18T09:37:55;8.18;;;4.38;;
50291;SDS011;36190;54.980;73.388;2022-07-18T09:40:24;8.68;;;3.92;;
50291;SDS011;36190;54.980;73.388;2022-07-18T09:42:55;5.75;;;3.63;;
50291;SDS011;36190;54.980;73.388;2022-07-18T09:45:25;7.95;;;3.70;;
50291;SDS011;36190;54.980;73.388;2022-07-18T09:47:54;6.63;;;3.30;;
50291;SDS011;36190;54.980;73.388;2022-07-18T09:50:26;9.32;;;3.90;;
50291;SDS011;36190;54.980;73.388;2022-07-18T09:53:03;6.28;;;3.22;;
50291;SDS011;36190;54.980;73.388;2022-07-18T09:55:33;5.15;;;3.30;;
50291;SDS011;36190;54.980;73.388;2022-07-18T09:58:02;7.45;;;3.38;;
50291;SDS011;36190;54.980;73.388;2022-07-18T10:00:32;6.38;;;3.20;;
50291;SDS011;36190;54.980;73.388;2022-07-18T10:03:00;5.57;;;3.08;;
50291;SDS011;36190;54.980;73.388;2022-07-18T10:05:31;6.30;;;3.22;;
50291;SDS011;36190;54.980;73.388;2022-07-18T10:08:00;7.70;;;3.30;;
50291;SDS011;36190;54.980;73.388;2022-07-18T10:10:29;6.95;;;3.22;;
50291;SDS011;36190;54.980;73.388;2022-07-18T10:12:58;6.88;;;3.35;;
50291;SDS011;36190;54.980;73.388;2022-07-18T10:15:27;6.82;;;3.35;;
50291;SDS011;36190;54.980;73.388;2022-07-18T10:17:55;5.18;;;3.35;;
50291;SDS011;36190;54.980;73.388;2022-07-18T10:20:28;4.82;;;3.13;;
50291;SDS011;36190;54.980;73.388;2022-07-18T10:23:01;5.25;;;3.30;;
50291;SDS011;36190;54.980;73.388;2022-07-18T10:25:34;6.63;;;3.20;;
50291;SDS011;36190;54.980;73.388;2022-07-18T10:28:06;7.97;;;3.42;;
50291;SDS011;36190;54.980;73.388;2022-07-18T10:30:36;6.53;;;3.53;;
50291;SDS011;36190;54.980;73.388;2022-07-18T10:36:06;7.10;;;3.33;;
50291;SDS011;36190;54.980;73.388;2022-07-18T10:38:34;8.52;;;3.45;;
50291;SDS011;36190;54.980;73.388;2022-07-18T10:41:04;8.30;;;3.28;;
50291;SDS011;36190;54.980;73.388;2022-07-18T10:43:34;6.30;;;3.28;;
50291;SDS011;36190;54.980;73.388;2022-07-18T10:46:03;6.00;;;3.22;;
50291;SDS011;36190;54.980;73.388;2022-07-18T10:51:19;4.90;;;2.92;;
50291;SDS011;36190;54.980;73.388;2022-07-18T10:53:55;8.00;;;3.10;;
50291;SDS011;36190;54.980;73.388;2022-07-18T10:59:33;5.35;;;2.92;;
50291;SDS011;36190;54.980;73.388;2022-07-18T11:02:01;6.93;;;3.17;;
50291;SDS011;36190;54.980;73.388;2022-07-18T11:04:33;6.03;;;2.90;;
50291;SDS011;36190;54.980;73.388;2022-07-18T11:07:09;5.78;;;3.00;;
50291;SDS011;36190;54.980;73.388;2022-07-18T11:09:40;6.28;;;3.25;;
50291;SDS011;36190;54.980;73.388;2022-07-18T11:12:18;7.80;;;3.50;;
50291;SDS011;36190;54.980;73.388;2022-07-18T11:14:57;4.43;;;2.90;;
50291;SDS011;36190;54.980;73.388;2022-07-18T11:20:25;7.13;;;3.28;;
50291;SDS011;36190;54.980;73.388;2022-07-18T11:22:55;5.43;;;3.08;;
50291;SDS011;36190;54.980;73.388;2022-07-18T11:25:26;7.07;;;3.30;;
50291;SDS011;36190;54.980;73.388;2022-07-18T11:27:54;6.00;;;3.10;;
50291;SDS011;36190;54.980;73.388;2022-07-18T11:30:23;4.50;;;2.95;;
50291;SDS011;36190;54.980;73.388;2022-07-18T11:32:51;6.35;;;3.10;;
50291;SDS011;36190;54.980;73.388;2022-07-18T11:35:22;7.68;;;3.30;;
50291;SDS011;36190;54.980;73.388;2022-07-18T11:37:52;6.25;;;3.28;;
50291;SDS011;36190;54.980;73.388;2022-07-18T11:40:22;5.63;;;3.17;;
50291;SDS011;36190;54.980;73.388;2022-07-18T11:42:49;7.65;;;3.58;;
50291;SDS011;36190;54.980;73.388;2022-07-18T11:45:17;6.28;;;2.92;;
50291;SDS011;36190;54.980;73.388;2022-07-18T11:47:48;9.68;;;3.40;;
50291;SDS011;36190;54.980;73.388;2022-07-18T11:50:17;5.95;;;3.22;;
50291;SDS011;36190;54.980;73.388;2022-07-18T11:52:55;6.57;;;3.50;;
50291;SDS011;36190;54.980;73.388;2022-07-18T11:55:32;7.95;;;3.40;;
50291;SDS011;36190;54.980;73.388;2022-07-18T11:58:07;7.72;;;3.42;;
50291;SDS011;36190;54.980;73.388;2022-07-18T12:00:35;6.15;;;3.30;;
50291;SDS011;36190;54.980;73.388;2022-07-18T12:03:06;5.55;;;2.92;;
50291;SDS011;36190;54.980;73.388;2022-07-18T12:05:36;8.85;;;3.00;;
50291;SDS011;36190;54.980;73.388;2022-07-18T12:11:06;6.05;;;3.10;;
50291;SDS011;36190;54.980;73.388;2022-07-18T12:13:42;7.20;;;3.13;;
50291;SDS011;36190;54.980;73.388;2022-07-18T12:16:21;5.95;;;3.28;;
50291;SDS011;36190;54.980;73.388;2022-07-18T12:18:53;6.77;;;3.40;;
50291;SDS011;36190;54.980;73.388;2022-07-18T12:21:22;6.93;;;3.28;;
50291;SDS011;36190;54.980;73.388;2022-07-18T12:23:50;9.82;;;3.50;;
50291;SDS011;36190;54.980;73.388;2022-07-18T12:26:28;6.97;;;3.10;;
50291;SDS011;36190;54.980;73.388;2022-07-18T12:29:04;6.65;;;3.10;;
50291;SDS011;36190;54.980;73.388;2022-07-18T12:31:36;6.15;;;3.00;;
50291;SDS011;36190;54.980;73.388;2022-07-18T12:34:08;7.78;;;3.17;;
50291;SDS011;36190;54.980;73.388;2022-07-18T12:39:24;5.53;;;3.03;;
50291;SDS011;36190;54.980;73.388;2022-07-18T12:41:56;5.70;;;3.20;;
50291;SDS011;36190;54.980;73.388;2022-07-18T12:44:25;5.10;;;3.30;;
50291;SDS011;36190;54.980;73.388;2022-07-18T12:46:53;6.32;;;3.20;;
50291;SDS011;36190;54.980;73.388;2022-07-18T12:49:21;7.25;;;3.30;;
50291;SDS011;36190;54.980;73.388;2022-07-18T12:51:48;4.85;;;3.30;;
50291;SDS011;36190;54.980;73.388;2022-07-18T12:54:16;5.90;;;3.30;;
50291;SDS011;36190;54.980;73.388;2022-07-18T12:56:45;7.40;;;3.00;;
50291;SDS011;36190;54.980;73.388;2022-07-18T12:59:14;7.82;;;3.03;;
50291;SDS011;36190;54.980;73.388;2022-07-18T13:01:41;6.28;;;3.05;;
50291;SDS011;36190;54.980;73.388;2022-07-18T13:04:08;5.00;;;2.88;;
50291;SDS011;36190;54.980;73.388;2022-07-18T13:06:36;8.77;;;3.67;;
50291;SDS011;36190;54.980;73.388;2022-07-18T13:09:04;6.50;;;3.63;;
50291;SDS011;36190;54.980;73.388;2022-07-18T13:11:31;9.85;;;3.60;;
50291;SDS011;36190;54.980;73.388;2022-07-18T13:13:59;5.95;;;3.13;;
50291;SDS011;36190;54.980;73.388;2022-07-18T13:16:28;8.48;;;3.50;;
50291;SDS011;36190;54.980;73.388;2022-07-18T13:18:55;8.77;;;3.20;;
50291;SDS011;36190;54.980;73.388;2022-07-18T13:21:23;6.47;;;3.50;;
50291;SDS011;36190;54.980;73.388;2022-07-18T13:23:50;9.07;;;3.55;;
50291;SDS011;36190;54.980;73.388;2022-07-18T13:26:17;6.60;;;3.30;;
50291;SDS011;36190;54.980;73.388;2022-07-18T13:28:45;7.78;;;3.70;;
50291;SDS011;36190;54.980;73.388;2022-07-18T13:31:12;6.57;;;3.53;;
50291;SDS011;36190;54.980;73.388;2022-07-18T13:33:41;6.07;;;3.28;;
50291;SDS011;36190;54.980;73.388;2022-07-18T13:36:09;8.07;;;3.80;;
50291;SDS011;36190;54.980;73.388;2022-07-18T13:38:36;10.55;;;4.05;;
50291;SDS011;36190;54.980;73.388;2022-07-18T13:41:03;9.35;;;3.97;;
50291;SDS011;36190;54.980;73.388;2022-07-18T13:43:31;6.82;;;3.58;;
50291;SDS011;36190;54.980;73.388;2022-07-18T13:45:59;6.65;;;3.60;;
50291;SDS011;36190;54.980;73.388;2022-07-18T13:48:26;8.13;;;3.60;;
50291;SDS011;36190;54.980;73.388;2022-07-18T13:50:55;7.55;;;4.00;;
50291;SDS011;36190;54.980;73.388;2022-07-18T13:53:22;8.65;;;4.10;;
50291;SDS011;36190;54.980;73.388;2022-07-18T13:55:50;9.15;;;4.53;;
50291;SDS011;36190;54.980;73.388;2022-07-18T13:58:17;8.27;;;4.00;;
50291;SDS011;36190;54.980;73.388;2022-07-18T14:00:45;6.72;;;3.63;;
50291;SDS011;36190;54.980;73.388;2022-07-18T14:03:12;9.40;;;4.30;;
50291;SDS011;36190;54.980;73.388;2022-07-18T14:05:40;9.07;;;4.07;;
50291;SDS011;36190;54.980;73.388;2022-07-18T14:08:09;13.85;;;4.43;;
50291;SDS011;36190;54.980;73.388;2022-07-18T14:10:37;12.23;;;5.32;;
50291;SDS011;36190;54.980;73.388;2022-07-18T14:13:04;9.85;;;4.68;;
50291;SDS011;36190;54.980;73.388;2022-07-18T14:15:32;8.70;;;4.43;;
50291;SDS011;36190;54.980;73.388;2022-07-18T14:17:59;9.60;;;4.20;;
50291;SDS011;36190;54.980;73.388;2022-07-18T14:20:28;10.27;;;4.75;;
50291;SDS011;36190;54.980;73.388;2022-07-18T14:22:56;11.55;;;4.72;;
50291;SDS011;36190;54.980;73.388;2022-07-18T14:25:25;7.72;;;4.03;;
50291;SDS011;36190;54.980;73.388;2022-07-18T14:27:53;8.27;;;4.53;;
50291;SDS011;36190;54.980;73.388;2022-07-18T14:30:20;9.10;;;4.30;;
50291;SDS011;36190;54.980;73.388;2022-07-18T14:32:48;7.88;;;4.25;;
50291;SDS011;36190;54.980;73.388;2022-07-18T14:35:15;9.35;;;4.82;;
50291;SDS011;36190;54.980;73.388;2022-07-18T14:37:42;10.52;;;4.78;;
50291;SDS011;36190;54.980;73.388;2022-07-18T14:40:10;8.70;;;5.07;;
50291;SDS011;36190;54.980;73.388;2022-07-18T14:42:39;11.40;;;5.57;;
50291;SDS011;36190;54.980;73.388;2022-07-18T14:45:07;9.35;;;5.53;;
50291;SDS011;36190;54.980;73.388;2022-07-18T14:47:35;11.02;;;5.53;;
50291;SDS011;36190;54.980;73.388;2022-07-18T14:50:02;13.63;;;5.90;;
50291;SDS011;36190;54.980;73.388;2022-07-18T14:52:30;17.50;;;6.53;;
50291;SDS011;36190;54.980;73.388;2022-07-18T14:54:58;17.00;;;6.43;;
50291;SDS011;36190;54.980;73.388;2022-07-18T14:57:25;17.35;;;6.57;;